Nile, Texas
Current Conditions -  °F | °C
As of 1:58 PM on Thursday 23 Oct 2014 (Local Time) from KGRK Reporting Station
Overcast Overcast  
Wind Chill: 78°   Ceiling: 5000
Heat Index: 79°   Visibility: 10mi
Dew Point: 60°   Wind: 1mph
Humidity: 55%   Direction: 170°S
Pressure: 30.11"   Gusts: NA
Location:  30.5951°N, 97.1399°W
Report Text: KGRK 231858Z 17001KT 10SM FEW038 BKN050 OVC060 25/16 A3011 RMK AO2A CIG 039 RWY33 SLP187 T02530156 $
Loading
Personal Weather Stations






























Interactive Weather Map
Tropical Storm Tracking
New forecast layout! Learn more

10-Day Weather Forecast

Advertisements
Track Severe Weather on mobile